Time;durP1;ratioP1;P1;durP2;ratioP2;P2;SDS_P1;SDS_P2;PMS_P1;PMS_P2;Temp;Humidity;BMP_temperature;BMP_pressure;BME280_temperature;BME280_humidity;BME280_pressure;Samples;Min_cycle;Max_cycle;Signal;HPM_P1;HPM_P2
2022/07/05 19:28:34;;;;;;;3.10;1.35;;;22.10;69.50;;;;;;5090956;27;20366;-47
2022/07/05 19:31:00;;;;;;;3.35;1.13;;;21.80;69.80;;;;;;5090302;28;20040;-50
2022/07/05 19:33:27;;;;;;;2.95;1.20;;;21.80;69.80;;;;;;5088767;28;20127;-52
2022/07/05 19:35:54;;;;;;;4.82;1.42;;;21.90;70.00;;;;;;5074264;28;20048;-52
2022/07/05 19:38:21;;;;;;;3.00;0.90;;;21.90;70.00;;;;;;5070683;28;20743;-54
2022/07/05 19:40:48;;;;;;;5.30;1.42;;;21.90;69.90;;;;;;5083094;28;20155;-56
2022/07/05 19:43:15;;;;;;;5.95;1.80;;;21.90;69.90;;;;;;5090241;28;20086;-45
2022/07/05 19:45:42;;;;;;;4.88;1.67;;;22.00;70.00;;;;;;5089426;28;20074;-51
2022/07/05 19:48:09;;;;;;;6.68;1.25;;;22.10;69.80;;;;;;5089896;28;20036;-48
2022/07/05 19:50:35;;;;;;;6.72;1.77;;;22.10;69.60;;;;;;5089100;28;20394;-50
2022/07/05 19:53:02;;;;;;;4.85;1.52;;;22.00;69.80;;;;;;5075715;28;20055;-52
2022/07/05 19:55:29;;;;;;;5.40;1.77;;;21.90;70.00;;;;;;5070992;28;20033;-53
2022/07/05 19:57:56;;;;;;;5.82;1.52;;;21.90;70.40;;;;;;5086931;28;20098;-55
2022/07/05 20:00:23;;;;;;;4.13;1.33;;;21.90;70.40;;;;;;5089805;28;20044;-50
2022/07/05 20:02:50;;;;;;;3.05;1.25;;;21.90;70.60;;;;;;5088930;28;20486;-56
2022/07/05 20:05:17;;;;;;;4.05;1.50;;;21.80;70.50;;;;;;5089512;28;20056;-53
2022/07/05 20:07:44;;;;;;;3.55;1.63;;;21.70;70.80;;;;;;5089532;28;20531;-50
2022/07/05 20:10:11;;;;;;;2.40;1.30;;;21.70;71.00;;;;;;5082277;28;20040;-47
2022/07/05 20:12:38;;;;;;;4.82;1.75;;;21.50;71.10;;;;;;5088484;28;20036;-52
2022/07/05 20:15:05;;;;;;;8.23;1.90;;;21.50;71.00;;;;;;5089028;28;20080;-50
2022/07/05 20:17:31;;;;;;;2.63;1.50;;;21.40;71.40;;;;;;5071399;28;20044;-47
2022/07/05 20:19:58;;;;;;;3.58;1.60;;;21.30;71.80;;;;;;5088916;28;20044;-50
2022/07/05 20:22:25;;;;;;;5.05;1.50;;;21.20;72.10;;;;;;5069738;28;20041;-53
2022/07/05 20:24:52;;;;;;;6.07;1.40;;;21.20;72.10;;;;;;5089044;28;20517;-55
2022/07/05 20:27:19;;;;;;;6.55;1.40;;;21.20;73.00;;;;;;5074802;28;20072;-49
2022/07/05 20:29:45;;;;;;;3.10;1.40;;;21.20;72.40;;;;;;5081171;28;20491;-52
2022/07/05 20:32:12;;;;;;;2.33;1.17;;;21.10;72.70;;;;;;5088995;28;20040;-53
2022/07/05 20:34:41;;;;;;;4.20;1.40;;;21.10;73.20;;;;;;5088484;28;20493;-54
2022/07/05 20:37:08;;;;;;;2.95;1.60;;;21.00;73.40;;;;;;5089290;28;20470;-56
2022/07/05 20:39:36;;;;;;;3.25;1.60;;;20.90;73.80;;;;;;5077062;28;20045;-52
2022/07/05 20:42:02;;;;;;;4.30;1.30;;;20.90;74.00;;;;;;5075702;28;20107;-48
2022/07/05 20:44:29;;;;;;;2.58;1.20;;;20.80;74.70;;;;;;5073562;28;20398;-53
2022/07/05 20:46:56;;;;;;;5.25;1.67;;;20.70;75.10;;;;;;5075460;28;20072;-52
2022/07/05 20:49:23;;;;;;;5.55;1.67;;;20.60;75.40;;;;;;5069463;28;20043;-50
2022/07/05 20:51:50;;;;;;;5.18;1.73;;;20.60;75.70;;;;;;5055067;28;20115;-53
2022/07/05 20:54:17;;;;;;;4.05;1.50;;;20.50;76.10;;;;;;5057808;28;20429;-51
2022/07/05 20:56:43;;;;;;;6.47;2.10;;;20.50;76.20;;;;;;5067019;28;20040;-49
2022/07/05 20:59:10;;;;;;;4.90;1.92;;;20.50;76.30;;;;;;5066263;28;20068;-49
2022/07/05 21:01:37;;;;;;;6.07;1.58;;;20.50;76.40;;;;;;5065065;28;20048;-52
2022/07/05 21:04:11;;;;;;;4.93;1.60;;;20.40;76.60;;;;;;5060543;28;20558;-54
2022/07/05 21:06:38;;;;;;;3.85;1.67;;;20.40;76.60;;;;;;5059131;28;20032;-52
2022/07/05 21:09:05;;;;;;;7.72;2.40;;;20.30;77.00;;;;;;5068182;28;20043;-52
2022/07/05 21:11:32;;;;;;;4.45;1.90;;;20.30;77.10;;;;;;5060117;28;20431;-53
2022/07/05 21:13:59;;;;;;;6.00;2.00;;;20.20;77.40;;;;;;5056875;28;20034;-47
2022/07/05 21:16:25;;;;;;;5.60;1.70;;;20.20;77.70;;;;;;5064988;28;20049;-51
2022/07/05 21:18:52;;;;;;;3.47;1.27;;;20.10;78.30;;;;;;5073027;28;20041;-54
2022/07/05 21:21:19;;;;;;;3.40;1.40;;;20.10;78.40;;;;;;5060626;28;20889;-54
2022/07/05 21:23:46;;;;;;;3.22;1.40;;;20.00;78.30;;;;;;5063888;28;20480;-49
2022/07/05 21:26:13;;;;;;;5.95;1.80;;;20.00;78.40;;;;;;5066247;28;20098;-55
2022/07/05 21:28:39;;;;;;;3.97;1.70;;;20.00;78.50;;;;;;5071048;28;20048;-54
2022/07/05 21:31:06;;;;;;;4.57;1.80;;;20.00;78.80;;;;;;5055946;28;20490;-50
2022/07/05 21:33:34;;;;;;;6.75;1.92;;;19.90;78.90;;;;;;5065391;28;20045;-49
2022/07/05 21:36:01;;;;;;;5.00;1.50;;;19.90;78.70;;;;;;5065077;28;20041;-56
2022/07/05 21:38:28;;;;;;;4.32;1.70;;;19.90;79.00;;;;;;5062003;28;20072;-50
2022/07/05 21:40:54;;;;;;;3.85;1.63;;;19.80;79.10;;;;;;5061520;28;20039;-53
2022/07/05 21:43:21;;;;;;;5.85;1.60;;;19.80;79.40;;;;;;5056128;28;20137;-49
2022/07/05 21:45:48;;;;;;;4.47;1.58;;;19.70;79.60;;;;;;5064764;28;20638;-50
2022/07/05 21:48:15;;;;;;;4.03;1.70;;;19.70;79.90;;;;;;5061643;28;20036;-48
2022/07/05 21:50:42;;;;;;;4.60;1.70;;;19.70;79.80;;;;;;5063904;28;20124;-55
2022/07/05 21:53:09;;;;;;;3.38;1.42;;;19.60;80.00;;;;;;5059971;28;20044;-51
